TimeCST,TemperatureF,Dew PointF,Humidity,Sea Level PressureIn,VisibilityMPH,Wind Direction,Wind SpeedMPH,Gust SpeedMPH,PrecipitationIn,Events,Conditions,WindDirDegrees,DateUTC
12:15 AM,14.0,10.4,86,30.46,10.0,Calm,Calm,-,N/A,,Clear,0,2012-11-16 06:15:00
12:35 AM,15.8,8.6,73,30.46,10.0,Calm,Calm,-,N/A,,Clear,0,2012-11-16 06:35:00
12:53 AM,14.0,10.4,86,30.46,10.0,Calm,Calm,-,N/A,,Clear,0,2012-11-16 06:53:00
1:15 AM,14.0,10.4,86,30.45,10.0,Calm,Calm,-,N/A,,Clear,0,2012-11-16 07:15:00
1:34 AM,12.2,10.4,92,30.45,10.0,Calm,Calm,-,N/A,,Clear,0,2012-11-16 07:34:00
1:53 AM,12.2,8.6,85,30.45,10.0,Calm,Calm,-,N/A,,Clear,0,2012-11-16 07:53:00
2:15 AM,12.2,10.4,92,30.46,10.0,Calm,Calm,-,N/A,,Clear,0,2012-11-16 08:15:00
2:35 AM,12.2,8.6,85,30.46,10.0,Calm,Calm,-,N/A,,Clear,0,2012-11-16 08:35:00
2:52 AM,12.2,8.6,85,30.46,10.0,Calm,Calm,-,N/A,,Clear,0,2012-11-16 08:52:00
3:15 AM,12.2,8.6,85,30.44,10.0,Calm,Calm,-,N/A,,Clear,0,2012-11-16 09:15:00
3:35 AM,12.2,8.6,85,30.43,10.0,ESE,3.5,-,N/A,,Clear,120,2012-11-16 09:35:00
3:52 AM,12.2,10.4,92,30.43,10.0,Calm,Calm,-,N/A,,Clear,0,2012-11-16 09:52:00
4:15 AM,12.2,8.6,85,30.42,10.0,ESE,3.5,-,N/A,,Clear,120,2012-11-16 10:15:00
4:35 AM,14.0,10.4,86,30.42,10.0,ESE,3.5,-,N/A,,Clear,120,2012-11-16 10:35:00
4:52 AM,12.2,10.4,92,30.41,10.0,SE,3.5,-,N/A,,Clear,130,2012-11-16 10:52:00
5:14 AM,12.2,8.6,85,30.41,10.0,Calm,Calm,-,N/A,,Clear,0,2012-11-16 11:14:00
5:35 AM,12.2,8.6,85,30.41,10.0,Calm,Calm,-,N/A,,Clear,0,2012-11-16 11:35:00
5:53 AM,10.4,8.6,92,30.41,10.0,Calm,Calm,-,N/A,,Clear,0,2012-11-16 11:53:00
6:15 AM,10.4,8.6,92,30.41,10.0,Calm,Calm,-,N/A,,Clear,0,2012-11-16 12:15:00
6:35 AM,10.4,8.6,92,30.40,10.0,ESE,3.5,-,N/A,,Clear,120,2012-11-16 12:35:00
6:53 AM,10.4,8.6,92,30.39,10.0,ESE,4.6,-,N/A,,Clear,120,2012-11-16 12:53:00
7:15 AM,15.8,8.6,73,30.40,10.0,ESE,4.6,-,N/A,,Clear,120,2012-11-16 13:15:00
7:35 AM,12.2,8.6,85,30.40,10.0,ESE,3.5,-,N/A,,Clear,110,2012-11-16 13:35:00
7:53 AM,15.8,10.4,79,30.41,10.0,Calm,Calm,-,N/A,,Clear,0,2012-11-16 13:53:00
8:15 AM,15.8,10.4,79,30.41,10.0,Calm,Calm,-,N/A,,Clear,0,2012-11-16 14:15:00
8:35 AM,19.4,15.8,86,30.41,10.0,SSE,5.8,-,N/A,,Clear,150,2012-11-16 14:35:00
8:53 AM,21.2,14.0,74,30.41,10.0,SSE,8.1,-,N/A,,Clear,150,2012-11-16 14:53:00
9:15 AM,23.0,14.0,68,30.41,10.0,SSE,8.1,-,N/A,,Clear,150,2012-11-16 15:15:00
9:35 AM,24.8,12.2,59,30.42,10.0,South,8.1,-,N/A,,Clear,170,2012-11-16 15:35:00
9:52 AM,26.6,12.2,55,30.42,10.0,South,8.1,-,N/A,,Clear,180,2012-11-16 15:52:00
10:15 AM,28.4,12.2,51,30.42,10.0,South,9.2,-,N/A,,Clear,170,2012-11-16 16:15:00
10:35 AM,28.4,12.2,51,30.42,10.0,South,8.1,-,N/A,,Clear,170,2012-11-16 16:35:00
10:52 AM,30.2,12.2,47,30.42,10.0,South,8.1,-,N/A,,Clear,170,2012-11-16 16:52:00
11:15 AM,30.2,12.2,47,30.40,10.0,SSE,10.4,-,N/A,,Clear,150,2012-11-16 17:15:00
11:35 AM,30.2,12.2,47,30.39,10.0,SSE,11.5,-,N/A,,Clear,160,2012-11-16 17:35:00
11:52 AM,33.8,12.2,41,30.38,10.0,SSE,8.1,-,N/A,,Clear,160,2012-11-16 17:52:00
12:15 PM,35.6,12.2,38,30.35,10.0,SE,12.7,-,N/A,,Clear,140,2012-11-16 18:15:00
12:35 PM,33.8,12.2,41,30.34,10.0,SSE,11.5,-,N/A,,Clear,150,2012-11-16 18:35:00
12:52 PM,35.6,12.2,38,30.34,10.0,SSE,10.4,-,N/A,,Clear,150,2012-11-16 18:52:00
1:15 PM,37.4,12.2,36,30.33,10.0,South,10.4,-,N/A,,Clear,170,2012-11-16 19:15:00
1:35 PM,35.6,12.2,38,30.32,10.0,SSE,12.7,-,N/A,,Clear,160,2012-11-16 19:35:00
1:52 PM,37.4,12.2,36,30.31,10.0,SE,11.5,-,N/A,,Clear,140,2012-11-16 19:52:00
2:15 PM,37.4,12.2,36,30.30,10.0,SE,10.4,-,N/A,,Clear,140,2012-11-16 20:15:00
2:35 PM,37.4,12.2,36,30.28,10.0,SSE,15.0,-,N/A,,Clear,150,2012-11-16 20:35:00
2:52 PM,37.4,12.2,36,30.28,10.0,SSE,12.7,-,N/A,,Clear,160,2012-11-16 20:52:00
3:15 PM,35.6,12.2,38,30.27,10.0,SE,13.8,-,N/A,,Clear,140,2012-11-16 21:15:00
3:35 PM,35.6,12.2,38,30.26,10.0,SE,13.8,-,N/A,,Clear,140,2012-11-16 21:35:00
3:52 PM,35.6,12.2,38,30.26,10.0,SE,11.5,-,N/A,,Clear,140,2012-11-16 21:52:00
4:15 PM,33.8,12.2,41,30.26,10.0,SE,10.4,-,N/A,,Clear,140,2012-11-16 22:15:00
4:35 PM,33.8,14.0,44,30.25,10.0,SE,8.1,-,N/A,,Clear,140,2012-11-16 22:35:00
4:52 PM,32.0,14.0,48,30.25,10.0,SE,11.5,-,N/A,,Clear,130,2012-11-16 22:52:00
5:15 PM,30.2,14.0,51,30.25,10.0,SE,9.2,-,N/A,,Clear,140,2012-11-16 23:15:00
5:35 PM,30.2,14.0,51,30.23,10.0,SE,13.8,-,N/A,,Clear,130,2012-11-16 23:35:00
5:53 PM,30.2,14.0,51,30.23,10.0,SE,11.5,-,N/A,,Clear,130,2012-11-16 23:53:00
6:15 PM,30.2,15.8,55,30.23,10.0,SE,11.5,-,N/A,,Clear,140,2012-11-17 00:15:00
6:35 PM,30.2,15.8,55,30.22,10.0,SE,12.7,-,N/A,,Clear,140,2012-11-17 00:35:00
6:52 PM,28.4,15.8,59,30.22,10.0,SE,11.5,-,N/A,,Clear,130,2012-11-17 00:52:00
7:15 PM,28.4,15.8,59,30.20,10.0,SE,11.5,-,N/A,,Clear,140,2012-11-17 01:15:00
7:35 PM,28.4,15.8,59,30.20,10.0,SE,9.2,-,N/A,,Clear,140,2012-11-17 01:35:00
7:53 PM,30.2,15.8,55,30.21,10.0,SSE,11.5,-,N/A,,Clear,150,2012-11-17 01:53:00
8:15 PM,30.2,15.8,55,30.21,10.0,SSE,11.5,-,N/A,,Clear,150,2012-11-17 02:15:00
8:35 PM,30.2,15.8,55,30.20,10.0,SSE,11.5,-,N/A,,Clear,150,2012-11-17 02:35:00
8:53 PM,30.2,15.8,55,30.20,10.0,SSE,11.5,-,N/A,,Clear,150,2012-11-17 02:53:00
9:14 PM,30.2,17.6,60,30.20,10.0,SSE,10.4,-,N/A,,Clear,150,2012-11-17 03:14:00
9:53 PM,30.2,17.6,60,30.19,10.0,SSE,9.2,-,N/A,,Clear,150,2012-11-17 03:53:00
10:14 PM,30.2,19.4,64,30.18,10.0,SSE,9.2,-,N/A,,Clear,150,2012-11-17 04:14:00
10:35 PM,30.2,19.4,64,30.18,10.0,SSE,10.4,-,N/A,,Clear,150,2012-11-17 04:35:00
10:53 PM,33.8,21.2,60,30.17,10.0,SSE,11.5,-,N/A,,Clear,150,2012-11-17 04:53:00
11:14 PM,33.8,21.2,60,30.16,10.0,SSE,11.5,-,N/A,,Clear,160,2012-11-17 05:14:00
11:35 PM,33.8,23.0,65,30.16,10.0,SSE,11.5,18.4,N/A,,Clear,150,2012-11-17 05:35:00
11:52 PM,33.8,23.0,65,30.16,10.0,SSE,13.8,18.4,N/A,,Clear,160,2012-11-17 05:52:00